Time;durP1;ratioP1;P1;durP2;ratioP2;P2;SDS_P1;SDS_P2;PMS_P1;PMS_P2;Temp;Humidity;BMP_temperature;BMP_pressure;BME280_temperature;BME280_humidity;BME280_pressure;Samples;Min_cycle;Max_cycle;Signal;HPM_P1;HPM_P2
2021/12/04 00:02:00;;;;;;;;;;;5.00;99.90;;;;;;5078220;28;19908;-86
2021/12/04 00:04:30;;;;;;;;;;;5.00;99.90;;;;;;5077862;28;19998;-85
2021/12/04 00:06:57;;;;;;;;;;;5.00;99.90;;;;;;5060799;28;19908;-86
2021/12/04 00:09:23;;;;;;;;;;;5.00;99.90;;;;;;5077645;28;19908;-86
2021/12/04 00:12:08;;;;;;;;;;;5.00;99.90;;;;;;5096052;28;19911;-85
2021/12/04 00:14:34;;;;;;;;;;;4.90;99.90;;;;;;5060862;28;19919;-86
2021/12/04 00:17:01;;;;;;;;;;;5.00;99.90;;;;;;5060950;28;19918;-85
2021/12/04 00:19:27;;;;;;;;;;;5.00;99.90;;;;;;5060638;28;19908;-85
2021/12/04 00:21:52;;;;;;;;;;;5.00;99.90;;;;;;5060904;28;19908;-85
2021/12/04 00:24:19;;;;;;;;;;;5.00;99.90;;;;;;5061060;28;20060;-85
2021/12/04 00:26:45;;;;;;;;;;;4.90;99.90;;;;;;5077492;28;20424;-85
2021/12/04 00:29:11;;;;;;;;;;;4.90;99.90;;;;;;5060793;28;20424;-86
2021/12/04 00:31:37;;;;;;;;;;;5.00;99.90;;;;;;5060563;28;19914;-86
2021/12/04 00:34:03;;;;;;;;;;;5.00;99.90;;;;;;5060467;28;20459;-86
2021/12/04 00:49:55;;;;;;;;;;;5.00;99.90;;;;;;5077879;28;19908;-87
2021/12/04 00:52:20;;;;;;;;;;;5.00;99.90;;;;;;5060952;28;19968;-87
2021/12/04 00:54:49;;;;;;;;;;;5.00;99.90;;;;;;5077982;28;19908;-87
2021/12/04 00:57:15;;;;;;;;;;;5.00;99.90;;;;;;5077399;28;19953;-87
2021/12/04 00:59:41;;;;;;;;;;;5.00;99.90;;;;;;5077019;28;19908;-86
2021/12/04 01:02:06;;;;;;;;;;;5.00;99.90;;;;;;5060898;28;20371;-86
2021/12/04 01:04:32;;;;;;;;;;;5.00;99.90;;;;;;5060631;28;19912;-85
2021/12/04 01:06:58;;;;;;;;;;;5.00;99.90;;;;;;5077401;28;19908;-86
2021/12/04 01:09:24;;;;;;;;;;;5.00;99.90;;;;;;5077097;28;19912;-87
2021/12/04 01:11:51;;;;;;;;;;;5.00;99.90;;;;;;5060692;28;19904;-86
2021/12/04 01:14:19;;;;;;;;;;;4.90;99.90;;;;;;5060606;28;19954;-87
2021/12/04 01:16:44;;;;;;;;;;;4.90;99.90;;;;;;5060563;28;19904;-86
2021/12/04 01:19:10;;;;;;;;;;;4.90;99.90;;;;;;5060049;28;19908;-86
2021/12/04 01:21:36;;;;;;;;;;;4.90;99.90;;;;;;5075873;28;19940;-86
2021/12/04 01:24:02;;;;;;;;;;;4.90;99.90;;;;;;5059490;28;19939;-87
2021/12/04 01:26:27;;;;;;;;;;;5.00;99.90;;;;;;5060056;28;19927;-87
2021/12/04 01:28:53;;;;;;;;;;;5.00;99.90;;;;;;5076172;28;19919;-86
2021/12/04 01:31:19;;;;;;;;;;;5.00;99.90;;;;;;5077478;28;19908;-87
2021/12/04 01:33:44;;;;;;;;;;;5.00;99.90;;;;;;5077506;28;19908;-86
2021/12/04 01:36:10;;;;;;;;;;;5.00;99.90;;;;;;5077233;28;19955;-85
2021/12/04 01:38:36;;;;;;;;;;;4.90;99.90;;;;;;5060546;28;19904;-86
2021/12/04 01:41:02;;;;;;;;;;;5.00;99.90;;;;;;5094661;28;19916;-86
2021/12/04 01:43:28;;;;;;;;;;;5.00;99.90;;;;;;5075229;28;19911;-87
2021/12/04 01:45:54;;;;;;;;;;;5.00;99.90;;;;;;5075195;28;19908;-87
2021/12/04 01:48:20;;;;;;;;;;;5.00;99.90;;;;;;5058333;28;19954;-86
2021/12/04 01:50:46;;;;;;;;;;;5.00;99.90;;;;;;5074933;28;20373;-86
2021/12/04 01:53:11;;;;;;;;;;;5.00;99.90;;;;;;5058193;28;20357;-86
2021/12/04 01:55:37;;;;;;;;;;;5.00;99.90;;;;;;5057897;28;19926;-85
2021/12/04 01:58:03;;;;;;;;;;;5.00;99.90;;;;;;5074767;28;19912;-85
2021/12/04 02:00:30;;;;;;;;;;;5.00;99.90;;;;;;5058156;28;19904;-86
2021/12/04 02:02:56;;;;;;;;;;;5.00;99.90;;;;;;5075082;28;20360;-86
2021/12/04 02:05:22;;;;;;;;;;;5.00;99.90;;;;;;5074825;28;20024;-86
2021/12/04 02:07:48;;;;;;;;;;;5.00;99.90;;;;;;5092532;28;19915;-86
2021/12/04 02:10:14;;;;;;;;;;;5.00;99.90;;;;;;5074758;28;20008;-86
2021/12/04 02:12:40;;;;;;;;;;;5.00;99.90;;;;;;5057932;28;19940;-86
2021/12/04 02:15:10;;;;;;;;;;;5.00;99.90;;;;;;5057944;28;19908;-86
2021/12/04 02:17:35;;;;;;;;;;;5.00;99.90;;;;;;5057641;28;20486;-85
2021/12/04 02:20:01;;;;;;;;;;;5.00;99.90;;;;;;5074599;28;19921;-86
2021/12/04 02:22:27;;;;;;;;;;;5.00;99.90;;;;;;5074557;28;19908;-86
2021/12/04 02:24:53;;;;;;;;;;;5.00;99.90;;;;;;5074632;28;19908;-87
2021/12/04 02:27:18;;;;;;;;;;;5.00;99.90;;;;;;5058116;28;19959;-86
2021/12/04 02:29:48;;;;;;;;;;;5.00;99.90;;;;;;5069009;23;19925;-87
2021/12/04 02:32:14;;;;;;;;;;;5.00;99.90;;;;;;5034662;28;19909;-87
2021/12/04 02:34:40;;;;;;;;;;;5.10;99.90;;;;;;5034585;28;19909;-87
2021/12/04 02:37:07;;;;;;;;;;;5.00;99.90;;;;;;5034428;28;20273;-87
2021/12/04 02:39:35;;;;;;;;;;;5.10;99.90;;;;;;5033728;28;20384;-87
2021/12/04 02:42:01;;;;;;;;;;;5.00;99.90;;;;;;5018153;28;19909;-87
2021/12/04 02:44:31;;;;;;;;;;;5.10;99.90;;;;;;5052361;28;20026;-87
2021/12/04 02:46:57;;;;;;;;;;;5.10;99.90;;;;;;5034319;28;19935;-87
2021/12/04 02:49:23;;;;;;;;;;;5.10;99.90;;;;;;5017456;28;19909;-87
2021/12/04 02:51:48;;;;;;;;;;;5.10;99.90;;;;;;5017733;28;19916;-87
2021/12/04 02:54:14;;;;;;;;;;;5.10;99.90;;;;;;5034400;28;19908;-87
2021/12/04 02:56:44;;;;;;;;;;;5.10;99.90;;;;;;5034322;28;19905;-87
2021/12/04 02:59:10;;;;;;;;;;;5.10;99.90;;;;;;5017396;28;19915;-87
2021/12/04 03:01:37;;;;;;;;;;;5.10;99.90;;;;;;5034498;28;19908;-87
2021/12/04 03:04:06;;;;;;;;;;;5.10;99.90;;;;;;5018256;28;19908;-87
2021/12/04 03:06:36;;;;;;;;;;;5.10;99.90;;;;;;5034920;28;19908;-87
2021/12/04 03:09:02;;;;;;;;;;;5.10;99.90;;;;;;5021111;28;20007;-87
2021/12/04 03:11:28;;;;;;;;;;;5.10;99.90;;;;;;5021536;28;19955;-87
2021/12/04 03:13:53;;;;;;;;;;;5.10;99.90;;;;;;5021557;28;20355;-88
2021/12/04 03:16:19;;;;;;;;;;;5.10;99.90;;;;;;5038173;28;19909;-88
2021/12/04 03:18:46;;;;;;;;;;;5.00;99.90;;;;;;5020810;28;20004;-88
2021/12/04 03:21:11;;;;;;;;;;;5.00;99.90;;;;;;5055470;28;19944;-88
2021/12/04 03:23:51;;;;;;;;;;;5.10;99.90;;;;;;5037746;28;20031;-88
2021/12/04 03:26:16;;;;;;;;;;;5.10;99.90;;;;;;5021297;28;20015;-88
2021/12/04 03:28:42;;;;;;;;;;;5.10;99.90;;;;;;5020580;28;19952;-87
2021/12/04 03:31:23;;;;;;;;;;;5.10;99.90;;;;;;5021164;28;20327;-88
2021/12/04 03:42:01;;;;;;;;;;;5.20;99.90;;;;;;5037511;28;20011;-88
2021/12/04 03:44:27;;;;;;;;;;;5.20;99.90;;;;;;5037256;28;20012;-88
2021/12/04 03:46:53;;;;;;;;;;;5.20;99.90;;;;;;5053912;28;19935;-87
2021/12/04 03:49:18;;;;;;;;;;;5.20;99.90;;;;;;5020264;28;20003;-88
2021/12/04 03:51:44;;;;;;;;;;;5.20;99.90;;;;;;5053787;28;19909;-88
2021/12/04 03:54:09;;;;;;;;;;;5.20;99.90;;;;;;5037322;28;20003;-87
2021/12/04 03:56:36;;;;;;;;;;;5.10;99.90;;;;;;5020638;28;20272;-88
2021/12/04 03:59:03;;;;;;;;;;;5.10;99.90;;;;;;5020124;28;19909;-88
2021/12/04 04:01:29;;;;;;;;;;;5.20;99.90;;;;;;5020505;28;19909;-88
2021/12/04 04:03:55;;;;;;;;;;;5.10;99.90;;;;;;5036951;28;19917;-87
2021/12/04 04:06:20;;;;;;;;;;;5.20;99.90;;;;;;5020560;28;20281;-87
2021/12/04 04:08:46;;;;;;;;;;;5.20;99.90;;;;;;5036549;28;20266;-87
2021/12/04 04:11:12;;;;;;;;;;;5.20;99.90;;;;;;5020280;28;19996;-88
2021/12/04 04:13:42;;;;;;;;;;;5.20;99.90;;;;;;5020504;28;20480;-88
2021/12/04 04:16:07;;;;;;;;;;;5.20;99.90;;;;;;5020305;28;19912;-87
2021/12/04 04:18:33;;;;;;;;;;;5.10;99.90;;;;;;5019639;28;19947;-87
2021/12/04 04:21:00;;;;;;;;;;;5.10;99.90;;;;;;5036187;28;19909;-87
2021/12/04 04:23:25;;;;;;;;;;;5.10;99.90;;;;;;5020259;28;19931;-87
2021/12/04 04:25:51;;;;;;;;;;;5.20;99.90;;;;;;5020096;28;20392;-87
2021/12/04 04:28:17;;;;;;;;;;;5.20;99.90;;;;;;5036013;28;19999;-87
2021/12/04 04:30:42;;;;;;;;;;;5.10;99.90;;;;;;5019806;28;19912;-87
2021/12/04 04:33:11;;;;;;;;;;;5.20;99.90;;;;;;5020151;28;20459;-87
2021/12/04 04:35:37;;;;;;;;;;;5.20;99.90;;;;;;5036589;28;20007;-87
2021/12/04 04:38:13;;;;;;;;;;;5.20;99.90;;;;;;5052643;28;20369;-88
2021/12/04 05:13:06;;;;;;;;;;;5.20;99.90;;;;;;5053667;28;19916;-88
2021/12/04 05:20:52;;;;;;;;;;;5.20;99.90;;;;;;5035628;28;20389;-88
2021/12/04 05:23:18;;;;;;;;;;;5.20;99.90;;;;;;5019203;28;20284;-88
2021/12/04 05:25:44;;;;;;;;;;;5.20;99.90;;;;;;5035699;28;19909;-88
2021/12/04 05:28:10;;;;;;;;;;;5.20;99.90;;;;;;5018542;28;19995;-88
2021/12/04 05:30:36;;;;;;;;;;;5.20;99.90;;;;;;5018322;28;20319;-88
2021/12/04 05:33:02;;;;;;;;;;;5.20;99.90;;;;;;5018947;28;19909;-88
2021/12/04 05:35:28;;;;;;;;;;;5.20;99.90;;;;;;5035323;28;19909;-88
2021/12/04 05:37:54;;;;;;;;;;;5.20;99.90;;;;;;5018378;28;19958;-88
2021/12/04 05:40:20;;;;;;;;;;;5.20;99.90;;;;;;5018659;28;19916;-88
2021/12/04 05:42:48;;;;;;;;;;;5.20;99.90;;;;;;5018763;28;19909;-86
2021/12/04 05:45:20;;;;;;;;;;;5.20;99.90;;;;;;5035138;28;19919;-88
2021/12/04 05:48:00;;;;;;;;;;;5.20;99.90;;;;;;5034689;28;19955;-88
2021/12/04 05:51:02;;;;;;;;;;;5.10;99.90;;;;;;5018921;28;19909;-87
2021/12/04 05:53:39;;;;;;;;;;;5.20;99.90;;;;;;5018574;28;19908;-88
2021/12/04 05:56:05;;;;;;;;;;;5.20;99.90;;;;;;5034739;28;19916;-88
2021/12/04 05:58:32;;;;;;;;;;;5.10;99.90;;;;;;5018236;28;19908;-88
2021/12/04 06:00:58;;;;;;;;;;;5.10;99.90;;;;;;5035134;28;19916;-88
2021/12/04 06:03:32;;;;;;;;;;;5.20;99.90;;;;;;5035390;28;20357;-88
2021/12/04 06:05:59;;;;;;;;;;;5.20;99.90;;;;;;5035052;28;19919;-88
2021/12/04 06:08:25;;;;;;;;;;;5.20;99.90;;;;;;5018507;28;19909;-88
2021/12/04 06:10:50;;;;;;;;;;;5.20;99.90;;;;;;5018704;28;19909;-88
2021/12/04 06:13:19;;;;;;;;;;;5.20;99.90;;;;;;5018795;28;19909;-87
2021/12/04 06:15:44;;;;;;;;;;;5.20;99.90;;;;;;5035311;28;19909;-87
2021/12/04 06:18:10;;;;;;;;;;;5.20;99.90;;;;;;5018105;28;19927;-88
2021/12/04 06:23:21;;;;;;;;;;;5.30;99.90;;;;;;5034707;28;20365;-88
2021/12/04 06:25:47;;;;;;;;;;;5.20;99.90;;;;;;5018588;28;19913;-87
2021/12/04 06:28:13;;;;;;;;;;;5.20;99.90;;;;;;5034860;28;20369;-88
2021/12/04 06:30:41;;;;;;;;;;;5.20;99.90;;;;;;5018202;28;19913;-88
2021/12/04 06:33:08;;;;;;;;;;;5.20;99.90;;;;;;5051343;28;19943;-88
2021/12/04 06:35:36;;;;;;;;;;;5.20;99.90;;;;;;5034797;28;19951;-88
2021/12/04 06:38:02;;;;;;;;;;;5.30;99.90;;;;;;5034330;28;19908;-88
2021/12/04 06:40:28;;;;;;;;;;;5.30;99.90;;;;;;5018232;28;20316;-88
2021/12/04 06:42:55;;;;;;;;;;;5.20;99.90;;;;;;5020240;28;19909;-88
2021/12/04 06:45:21;;;;;;;;;;;5.30;99.90;;;;;;5038606;28;19913;-88
2021/12/04 06:47:53;;;;;;;;;;;5.30;99.90;;;;;;5021802;28;19908;-88
2021/12/04 06:50:36;;;;;;;;;;;5.30;99.90;;;;;;5021981;28;20288;-88
2021/12/04 06:53:12;;;;;;;;;;;5.30;99.90;;;;;;5038728;28;20339;-88
2021/12/04 06:55:49;;;;;;;;;;;5.30;99.90;;;;;;5040147;28;19915;-87
2021/12/04 06:58:16;;;;;;;;;;;5.30;99.90;;;;;;5021926;28;19908;-88
2021/12/04 07:00:41;;;;;;;;;;;5.30;99.90;;;;;;5022088;28;19931;-88
2021/12/04 07:03:07;;;;;;;;;;;5.30;99.90;;;;;;5038729;28;19909;-88
2021/12/04 07:05:33;;;;;;;;;;;5.30;99.90;;;;;;5021874;28;19912;-88
2021/12/04 07:07:59;;;;;;;;;;;5.30;99.90;;;;;;5022558;28;20039;-88
2021/12/04 07:10:25;;;;;;;;;;;5.30;99.90;;;;;;5021826;28;20297;-88
2021/12/04 07:12:51;;;;;;;;;;;5.30;99.90;;;;;;5021766;28;19916;-88
2021/12/04 07:15:16;;;;;;;;;;;5.40;99.90;;;;;;5038072;28;19908;-88
2021/12/04 07:17:42;;;;;;;;;;;5.30;99.90;;;;;;5021328;28;19913;-89
2021/12/04 07:20:08;;;;;;;;;;;5.30;99.90;;;;;;5039055;28;19905;-87
2021/12/04 07:22:34;;;;;;;;;;;5.30;99.90;;;;;;5021407;28;19908;-87
2021/12/04 07:25:00;;;;;;;;;;;5.30;99.90;;;;;;5021531;28;19974;-88
2021/12/04 07:27:28;;;;;;;;;;;5.30;99.90;;;;;;5021395;28;19908;-88
2021/12/04 07:29:54;;;;;;;;;;;5.30;99.90;;;;;;5037547;28;20369;-88
2021/12/04 07:32:20;;;;;;;;;;;5.40;99.90;;;;;;5055817;28;19959;-88
2021/12/04 07:34:45;;;;;;;;;;;5.40;99.90;;;;;;5021350;28;19912;-88
2021/12/04 07:37:11;;;;;;;;;;;5.40;99.90;;;;;;5055707;28;19912;-88
2021/12/04 07:39:37;;;;;;;;;;;5.40;99.90;;;;;;5020745;28;20289;-88
2021/12/04 07:42:02;;;;;;;;;;;5.40;99.90;;;;;;5021266;28;20387;-88
2021/12/04 07:44:28;;;;;;;;;;;5.40;99.90;;;;;;5037524;28;19963;-87
2021/12/04 07:46:54;;;;;;;;;;;5.40;99.90;;;;;;5021151;28;19995;-88
2021/12/04 07:49:19;;;;;;;;;;;5.40;99.90;;;;;;5020743;28;19908;-88
2021/12/04 07:51:47;;;;;;;;;;;5.40;99.90;;;;;;5021310;28;19917;-88
2021/12/04 07:54:12;;;;;;;;;;;5.40;99.90;;;;;;5020574;28;20361;-88
2021/12/04 07:56:38;;;;;;;;;;;5.40;99.90;;;;;;5037497;28;19979;-88
2021/12/04 07:59:04;;;;;;;;;;;5.40;99.90;;;;;;5020695;28;20007;-88
2021/12/04 08:01:30;;;;;;;;;;;5.50;99.90;;;;;;5020797;28;19916;-88
2021/12/04 08:03:59;;;;;;;;;;;5.50;99.90;;;;;;5038319;28;19912;-88
2021/12/04 08:06:24;;;;;;;;;;;5.50;99.90;;;;;;5021412;28;19908;-89
2021/12/04 08:08:53;;;;;;;;;;;5.50;99.90;;;;;;5054174;28;20327;-89
2021/12/04 08:11:18;;;;;;;;;;;5.50;99.90;;;;;;5038271;28;19905;-89
2021/12/04 08:13:44;;;;;;;;;;;5.50;99.90;;;;;;5021094;28;19915;-89
2021/12/04 08:16:10;;;;;;;;;;;5.50;99.90;;;;;;5021604;28;19932;-88
2021/12/04 08:18:36;;;;;;;;;;;5.50;99.90;;;;;;5020823;28;19908;-88
2021/12/04 08:21:10;;;;;;;;;;;5.50;99.90;;;;;;5037548;28;19915;-88
2021/12/04 08:23:39;;;;;;;;;;;5.50;99.90;;;;;;5021890;28;19909;-88
2021/12/04 08:29:08;;;;;;;;;;;5.50;99.90;;;;;;5029023;28;19908;-88
2021/12/04 08:31:34;;;;;;;;;;;5.40;99.90;;;;;;5040818;23;19921;-84
2021/12/04 08:34:00;;;;;;;;;;;5.50;99.90;;;;;;5034075;28;19913;-86
2021/12/04 08:36:26;;;;;;;;;;;5.50;99.90;;;;;;5033972;28;19940;-87
2021/12/04 08:38:51;;;;;;;;;;;5.50;99.90;;;;;;5033575;28;19908;-86
2021/12/04 08:41:18;;;;;;;;;;;5.50;99.90;;;;;;5033961;28;20285;-86
2021/12/04 08:43:43;;;;;;;;;;;5.50;99.90;;;;;;5017444;28;19908;-86
2021/12/04 08:46:10;;;;;;;;;;;5.50;99.90;;;;;;5017086;28;19916;-86
2021/12/04 08:48:36;;;;;;;;;;;5.60;99.90;;;;;;5000817;28;19996;-85
2021/12/04 08:51:03;;;;;;;;;;;5.60;99.90;;;;;;5017403;28;19952;-85
2021/12/04 08:53:29;;;;;;;;;;;5.60;99.90;;;;;;5017102;28;19935;-85
2021/12/04 08:55:55;;;;;;;;;;;5.60;99.90;;;;;;5017404;28;19913;-85
2021/12/04 08:58:20;;;;;;;;;;;5.50;99.90;;;;;;5034636;28;19908;-85
2021/12/04 09:00:51;;;;;;;;;;;5.50;99.90;;;;;;5017664;28;19952;-85
2021/12/04 09:03:31;;;;;;;;;;;5.50;99.90;;;;;;5034114;28;20331;-86
2021/12/04 09:05:57;;;;;;;;;;;5.50;99.90;;;;;;5016655;28;19916;-85
2021/12/04 09:08:23;;;;;;;;;;;5.50;99.90;;;;;;5000882;28;19916;-85
2021/12/04 09:10:49;;;;;;;;;;;5.60;99.90;;;;;;5017001;28;19909;-87
2021/12/04 09:13:15;;;;;;;;;;;5.60;99.90;;;;;;5017310;28;20305;-85
2021/12/04 09:15:42;;;;;;;;;;;5.70;99.90;;;;;;5033861;28;19951;-85
2021/12/04 09:18:08;;;;;;;;;;;5.60;99.90;;;;;;5017368;28;19909;-86
2021/12/04 09:20:34;;;;;;;;;;;5.70;99.90;;;;;;5034680;28;19909;-86
2021/12/04 09:23:01;;;;;;;;;;;5.60;99.90;;;;;;5035158;28;20389;-85
2021/12/04 09:25:28;;;;;;;;;;;5.70;99.90;;;;;;5035181;28;19917;-85
2021/12/04 09:36:19;;;;;;;;;;;5.70;99.90;;;;;;5037456;28;19909;-86
2021/12/04 10:22:20;;;;;;;;;;;6.00;99.90;;;;;;5032697;28;19909;-86
2021/12/04 10:33:08;;;;;;;;;;;6.20;99.90;;;;;;4996560;28;19917;-87
2021/12/04 10:35:34;;;;;;;;;;;6.20;99.90;;;;;;5017455;28;19909;-86
2021/12/04 10:38:04;;;;;;;;;;;6.20;99.90;;;;;;5001185;28;19920;-84
2021/12/04 10:40:46;;;;;;;;;;;6.30;99.90;;;;;;5016979;28;19909;-87
2021/12/04 10:43:14;;;;;;;;;;;6.30;99.90;;;;;;5034042;28;19920;-85
2021/12/04 10:45:42;;;;;;;;;;;6.20;99.90;;;;;;5001277;28;19916;-85
2021/12/04 10:48:12;;;;;;;;;;;6.30;99.90;;;;;;5017304;28;19916;-86
2021/12/04 10:53:13;;;;;;;;;;;6.20;99.90;;;;;;5033784;28;20397;-86
2021/12/04 10:56:08;;;;;;;;;;;6.30;99.90;;;;;;5016700;28;19909;-85
2021/12/04 11:04:25;;;;;;;;;;;6.30;99.90;;;;;;5034501;28;19976;-85
2021/12/04 11:07:17;;;;;;;;;;;6.30;99.90;;;;;;5016723;28;19909;-85
2021/12/04 11:24:25;;;;;;;;;;;6.30;99.90;;;;;;5033449;28;19956;-85
2021/12/04 11:40:34;;;;;;;;;;;6.40;99.90;;;;;;5035528;28;19916;-85
2021/12/04 11:43:07;;;;;;;;;;;6.40;99.90;;;;;;5035941;28;19917;-85
2021/12/04 11:48:28;;;;;;;;;;;6.40;99.90;;;;;;5035991;28;20011;-85
2021/12/04 11:50:53;;;;;;;;;;;6.40;99.90;;;;;;5019003;28;20058;-85
2021/12/04 11:53:20;;;;;;;;;;;6.40;99.90;;;;;;5035736;28;19917;-85
2021/12/04 11:55:46;;;;;;;;;;;6.40;99.90;;;;;;5019591;28;19908;-85
2021/12/04 11:58:19;;;;;;;;;;;6.50;99.90;;;;;;5018939;28;19909;-85
2021/12/04 12:00:46;;;;;;;;;;;6.50;99.90;;;;;;5019187;28;19909;-86
2021/12/04 12:03:11;;;;;;;;;;;6.40;99.90;;;;;;5019112;28;19912;-85
2021/12/04 12:05:45;;;;;;;;;;;6.50;99.90;;;;;;5019214;28;19921;-84
2021/12/04 12:08:23;;;;;;;;;;;6.50;99.90;;;;;;5017769;28;19913;-86
2021/12/04 12:10:50;;;;;;;;;;;6.40;99.90;;;;;;5034347;28;19967;-86
2021/12/04 12:13:26;;;;;;;;;;;6.40;99.90;;;;;;5018727;28;19913;-85
2021/12/04 12:16:04;;;;;;;;;;;6.40;99.90;;;;;;5035033;28;20278;-86
2021/12/04 12:18:30;;;;;;;;;;;6.40;99.90;;;;;;5035245;28;19940;-86
2021/12/04 12:21:06;;;;;;;;;;;6.50;99.90;;;;;;5018833;28;19909;-86
2021/12/04 12:23:33;;;;;;;;;;;6.40;99.90;;;;;;5019729;28;19952;-87
2021/12/04 12:37:15;;;;;;;;;;;6.50;99.90;;;;;;5037136;28;19931;-84
2021/12/04 12:39:58;;;;;;;;;;;6.50;99.90;;;;;;5034080;28;19963;-85
2021/12/04 12:42:35;;;;;;;;;;;6.50;99.90;;;;;;5036748;28;19944;-85
2021/12/04 12:45:19;;;;;;;;;;;6.60;99.90;;;;;;5036983;28;20012;-85
2021/12/04 12:48:06;;;;;;;;;;;6.50;99.90;;;;;;5036217;28;20008;-86
2021/12/04 12:50:38;;;;;;;;;;;6.50;99.90;;;;;;5018331;28;19915;-86
2021/12/04 12:53:09;;;;;;;;;;;6.50;99.90;;;;;;5002304;28;19913;-86
2021/12/04 12:55:35;;;;;;;;;;;6.60;99.90;;;;;;5018802;28;20365;-86
2021/12/04 12:58:12;;;;;;;;;;;6.60;99.90;;;;;;5018005;28;19905;-86
2021/12/04 13:11:43;;;;;;;;;;;6.60;99.90;;;;;;5034880;28;19909;-85
2021/12/04 13:14:14;;;;;;;;;;;6.50;99.90;;;;;;5034452;28;19909;-85
2021/12/04 13:16:43;;;;;;;;;;;6.50;99.90;;;;;;5018633;28;19915;-85
2021/12/04 13:19:11;;;;;;;;;;;6.40;99.90;;;;;;5017673;28;19909;-85
2021/12/04 13:21:38;;;;;;;;;;;6.40;99.90;;;;;;5035737;28;20370;-86
2021/12/04 13:24:05;;;;;;;;;;;6.50;99.90;;;;;;5003843;28;19928;-85
2021/12/04 13:26:32;;;;;;;;;;;6.40;99.90;;;;;;5034784;28;20023;-85
2021/12/04 13:29:00;;;;;;;;;;;6.40;99.90;;;;;;5034325;28;20473;-86
2021/12/04 13:31:26;;;;;;;;;;;6.40;99.90;;;;;;5017786;28;19959;-86
2021/12/04 13:33:54;;;;;;;;;;;6.40;99.90;;;;;;5034123;28;19916;-86
2021/12/04 13:36:21;;;;;;;;;;;6.30;99.90;;;;;;5017594;28;20296;-86
2021/12/04 13:38:51;;;;;;;;;;;6.40;99.90;;;;;;5017430;28;19909;-85
2021/12/04 13:41:16;;;;;;;;;;;6.30;99.90;;;;;;5036254;28;19980;-85
2021/12/04 13:43:48;;;;;;;;;;;6.40;99.90;;;;;;5019704;28;19956;-86
2021/12/04 13:46:14;;;;;;;;;;;6.30;99.90;;;;;;5017862;28;20007;-86
2021/12/04 13:48:40;;;;;;;;;;;6.30;99.90;;;;;;5017280;28;19936;-86
2021/12/04 13:51:05;;;;;;;;;;;6.30;99.90;;;;;;5033906;28;19935;-85
2021/12/04 13:53:33;;;;;;;;;;;6.30;99.90;;;;;;5017450;28;19941;-84
2021/12/04 13:56:19;;;;;;;;;;;6.30;99.90;;;;;;5035500;28;19909;-86
2021/12/04 13:58:52;;;;;;;;;;;6.20;99.90;;;;;;5016845;28;19931;-84
2021/12/04 14:01:18;;;;;;;;;;;6.20;99.90;;;;;;5017050;28;19909;-86
2021/12/04 14:03:47;;;;;;;;;;;6.20;99.90;;;;;;5017115;28;19909;-85
2021/12/04 14:06:16;;;;;;;;;;;6.20;99.90;;;;;;5021727;28;19976;-85
2021/12/04 14:08:42;;;;;;;;;;;6.20;99.90;;;;;;5016980;28;19909;-84
2021/12/04 14:11:08;;;;;;;;;;;6.10;99.90;;;;;;5033712;28;20404;-85
2021/12/04 14:13:36;;;;;;;;;;;6.20;99.90;;;;;;5034950;28;19909;-85
2021/12/04 14:16:02;;;;;;;;;;;6.20;99.90;;;;;;5000788;28;19909;-85
2021/12/04 14:18:29;;;;;;;;;;;6.20;99.90;;;;;;5032436;28;20016;-86
2021/12/04 14:21:00;;;;;;;;;;;6.20;99.90;;;;;;5031867;28;20428;-86
2021/12/04 14:23:27;;;;;;;;;;;6.20;99.90;;;;;;5016357;28;20003;-85
2021/12/04 14:25:55;;;;;;;;;;;6.20;99.90;;;;;;5016043;28;20281;-85
2021/12/04 14:28:24;;;;;;;;;;;6.20;99.90;;;;;;5031628;28;20332;-85
2021/12/04 14:30:51;;;;;;;;;;;6.20;99.90;;;;;;5063646;22;19931;-87
2021/12/04 14:33:19;;;;;;;;;;;6.20;99.90;;;;;;5054811;28;19908;-88
2021/12/04 14:35:47;;;;;;;;;;;6.20;99.90;;;;;;5054812;28;20023;-88
2021/12/04 14:38:16;;;;;;;;;;;6.20;99.90;;;;;;5054581;28;20352;-88
2021/12/04 14:40:44;;;;;;;;;;;6.20;99.90;;;;;;5030072;28;19909;-87
2021/12/04 14:43:10;;;;;;;;;;;6.20;99.90;;;;;;5034886;28;19958;-87
2021/12/04 14:45:37;;;;;;;;;;;6.10;99.90;;;;;;5034961;28;20325;-87
2021/12/04 14:48:07;;;;;;;;;;;6.20;99.90;;;;;;5034197;28;20353;-88
2021/12/04 14:50:34;;;;;;;;;;;6.10;99.90;;;;;;5034728;28;19943;-87
2021/12/04 14:53:01;;;;;;;;;;;6.10;99.90;;;;;;5034710;28;19978;-88
2021/12/04 14:55:26;;;;;;;;;;;6.10;99.90;;;;;;5018243;28;19912;-87
2021/12/04 14:57:52;;;;;;;;;;;6.10;99.90;;;;;;5050943;28;20277;-88
2021/12/04 15:00:21;;;;;;;;;;;6.20;99.90;;;;;;5034716;28;19908;-88
2021/12/04 15:02:51;;;;;;;;;;;6.10;99.90;;;;;;5018822;28;19909;-88
2021/12/04 15:05:27;;;;;;;;;;;6.10;99.90;;;;;;5038530;28;19913;-87
2021/12/04 15:08:04;;;;;;;;;;;6.10;99.90;;;;;;5038112;28;20204;-88
2021/12/04 15:10:30;;;;;;;;;;;6.10;99.90;;;;;;5021946;28;19915;-88
2021/12/04 15:12:58;;;;;;;;;;;6.00;99.90;;;;;;5038333;28;19904;-87
2021/12/04 15:15:27;;;;;;;;;;;6.00;99.90;;;;;;5056084;28;19935;-88
2021/12/04 15:17:53;;;;;;;;;;;6.00;99.90;;;;;;5037940;28;19948;-88
2021/12/04 15:20:30;;;;;;;;;;;6.00;99.90;;;;;;5038005;28;19963;-88
2021/12/04 15:22:58;;;;;;;;;;;6.00;99.90;;;;;;5038574;28;19940;-88
2021/12/04 15:25:26;;;;;;;;;;;6.00;99.90;;;;;;5038076;28;19915;-88
2021/12/04 15:27:57;;;;;;;;;;;6.00;99.90;;;;;;5037681;28;19912;-88
2021/12/04 15:30:26;;;;;;;;;;;6.00;99.90;;;;;;5037622;28;20339;-87
2021/12/04 15:32:53;;;;;;;;;;;6.00;99.90;;;;;;5038024;28;19939;-89
2021/12/04 15:35:37;;;;;;;;;;;6.00;99.90;;;;;;5039387;28;20254;-88
2021/12/04 15:41:05;;;;;;;;;;;6.00;99.90;;;;;;5054586;28;19951;-88
2021/12/04 15:43:33;;;;;;;;;;;6.00;99.90;;;;;;5037455;28;20392;-88
2021/12/04 15:54:18;;;;;;;;;;;6.00;99.90;;;;;;5054598;28;19978;-88
2021/12/04 15:56:57;;;;;;;;;;;6.10;99.90;;;;;;5021851;28;20140;-88
2021/12/04 15:59:30;;;;;;;;;;;6.00;99.90;;;;;;5021112;28;20361;-89
2021/12/04 16:02:12;;;;;;;;;;;6.00;99.90;;;;;;5021250;28;19908;-88
2021/12/04 16:05:04;;;;;;;;;;;5.90;99.90;;;;;;5040030;28;20274;-88
2021/12/04 16:07:32;;;;;;;;;;;6.00;99.90;;;;;;5053268;28;19996;-88
2021/12/04 16:10:04;;;;;;;;;;;6.00;99.90;;;;;;5037503;28;19909;-88
2021/12/04 16:13:26;;;;;;;;;;;6.10;99.90;;;;;;5021182;28;19959;-88
2021/12/04 16:16:11;;;;;;;;;;;6.00;99.90;;;;;;4987399;28;20353;-89
2021/12/04 16:22:27;;;;;;;;;;;6.00;99.90;;;;;;5055123;28;20378;-88
2021/12/04 16:25:37;;;;;;;;;;;6.00;99.90;;;;;;5040260;28;19916;-88
2021/12/04 16:39:57;;;;;;;;;;;6.20;99.90;;;;;;5053344;28;20321;-88
2021/12/04 16:42:23;;;;;;;;;;;6.20;99.90;;;;;;5020425;28;19936;-88
2021/12/04 16:44:49;;;;;;;;;;;6.20;99.90;;;;;;5036371;28;19959;-88
2021/12/04 16:47:15;;;;;;;;;;;6.20;99.90;;;;;;5036640;28;19909;-88
2021/12/04 16:49:41;;;;;;;;;;;6.20;99.90;;;;;;5036437;28;19919;-88
2021/12/04 16:55:41;;;;;;;;;;;6.20;99.90;;;;;;5053064;28;19909;-88
2021/12/04 17:00:13;;;;;;;;;;;6.20;99.90;;;;;;5052989;28;20294;-88
2021/12/04 17:02:39;;;;;;;;;;;6.30;99.90;;;;;;5036537;28;20026;-88
2021/12/04 17:05:05;;;;;;;;;;;6.30;99.90;;;;;;5019731;28;20460;-88
2021/12/04 17:07:32;;;;;;;;;;;6.30;99.90;;;;;;5036091;28;19909;-88
2021/12/04 17:09:58;;;;;;;;;;;6.30;99.90;;;;;;5019622;28;19908;-89
2021/12/04 17:12:23;;;;;;;;;;;6.30;99.90;;;;;;5036137;28;19905;-88
2021/12/04 17:14:49;;;;;;;;;;;6.30;99.90;;;;;;5036335;28;19909;-88
2021/12/04 17:17:23;;;;;;;;;;;6.40;99.90;;;;;;5019628;28;19915;-88
2021/12/04 17:19:49;;;;;;;;;;;6.30;99.90;;;;;;5035682;28;19930;-88
2021/12/04 17:22:14;;;;;;;;;;;6.30;99.90;;;;;;5036086;28;20392;-88
2021/12/04 17:24:40;;;;;;;;;;;6.30;99.90;;;;;;5035995;28;19935;-88
2021/12/04 17:27:07;;;;;;;;;;;6.30;99.90;;;;;;5035195;28;19909;-89
2021/12/04 17:29:34;;;;;;;;;;;6.20;99.90;;;;;;5053474;28;19908;-89
2021/12/04 17:31:59;;;;;;;;;;;6.20;99.90;;;;;;5018991;28;19917;-89
2021/12/04 17:34:25;;;;;;;;;;;6.20;99.90;;;;;;5035763;28;19962;-88
2021/12/04 17:36:51;;;;;;;;;;;6.20;99.90;;;;;;5036067;28;19909;-88
2021/12/04 17:39:17;;;;;;;;;;;6.20;99.90;;;;;;5019165;28;19908;-88
2021/12/04 17:41:43;;;;;;;;;;;6.30;99.90;;;;;;5019445;28;19938;-88
2021/12/04 17:44:10;;;;;;;;;;;6.20;99.90;;;;;;5035719;28;19905;-88
2021/12/04 17:46:37;;;;;;;;;;;6.20;99.90;;;;;;5035628;28;20415;-88
2021/12/04 17:49:04;;;;;;;;;;;6.20;99.90;;;;;;5035301;28;19908;-89
2021/12/04 17:51:39;;;;;;;;;;;6.20;99.90;;;;;;5035637;28;20126;-88
2021/12/04 17:54:12;;;;;;;;;;;6.20;99.90;;;;;;5036752;28;19915;-88
2021/12/04 17:56:39;;;;;;;;;;;6.20;99.90;;;;;;5035504;28;19908;-88
2021/12/04 17:59:06;;;;;;;;;;;6.30;99.90;;;;;;5035330;28;19970;-89
2021/12/04 18:01:35;;;;;;;;;;;6.20;99.90;;;;;;5051905;28;19908;-89
2021/12/04 18:04:01;;;;;;;;;;;6.20;99.90;;;;;;5035245;28;19908;-88
2021/12/04 18:06:27;;;;;;;;;;;6.20;99.90;;;;;;5018867;28;19913;-88
2021/12/04 18:08:54;;;;;;;;;;;6.30;99.90;;;;;;5035384;28;19954;-89
2021/12/04 18:11:24;;;;;;;;;;;6.20;99.90;;;;;;5019002;28;19951;-88
2021/12/04 18:13:51;;;;;;;;;;;6.20;99.90;;;;;;5036854;28;20195;-88
2021/12/04 18:16:24;;;;;;;;;;;6.30;99.90;;;;;;5038621;28;20004;-90
2021/12/04 18:18:50;;;;;;;;;;;6.30;99.90;;;;;;5053356;28;19893;-89